Aérodrome :
LOGIN :

S'inscrire | Disclaimer

   EN    FR    IT 

 










Légende :    VFR   VFR Marginal   IFR   IFR Intensif   IFR Très Intensif
Visi : 
Plafond : 
>= 8 km
>= 3000ft
5 à 8 km
1000 à 3000 ft
1500m à 5 km
500 à 1000 ft
800 à 1500m
200 à 500 ft
< 800m
< 200 ft
Symboles :   Orages  Brouillard  Fortes neiges  Fortes précipitations  Vent > 20 kt
SIGMETs :   Divers  Orages  Givrage  Turbulence  Onde Orograph.  Cendres Volcan.






- Altitude de l'aérodrome : 622 ft
- Code IATA : BRS


EGGD - Bristol Int.

DERNIER METAR :
  • 281550Z AUTO 26012KT 9999 FEW029 04/01 Q0998

METARs EXPIRÉS :
  • 281520Z 27016KT 9999 VCSH FEW022CB SCT034 04/01 Q0998
  • 281450Z 26008KT 9999 VCSH FEW012CB SCT023 SCT032 03/02 Q0997 RESHRA
  • 281420Z 24010KT 210V270 9999 6000N -SHRA SCT007 BKN014 03/02 Q0997
  • 281350Z 23011KT 9999 VCSH FEW018TCU SCT024 SCT033 03/02 Q0997
  • 281320Z 25013KT 9999 VCSH FEW018CB SCT035 02/01 Q0997 RESHSN

TAF TAF EGGD
Valide du 28 à 12h jusqu'au 29 à 12h UTC


281049Z 2812/2912 27014KT 9999 SCT020
PROB40
TEMPO 2812/2824 28020G30KT 7000 SHRA BKN012CB
PROB30
TEMPO 2812/2817 3000 +TSGS BKN008
ATIS : +44 1275 473 666



MET'MAP, la Météo Aéronautique d'un coup d'oeil ! - Copyright ORBIFLY Décembre 2007 - Disclaimer

ORBIFLY MET'MAP TEAM :

Programmation & Développement : Alexandra Zaïnal
Sur une idée originale de : Baudouin d'Aumeries
Assistance à la programmation : Marc-Olivier Méhu
Soutien technique & logistique : Manuel Goepfert

Contact : metmap@orbifly.com




SOURCES & CREDITS :

   NOAA